Mayport, Pennsylvania
Current Conditions -  °F | °C
As of 6:53 AM on Monday 20 Oct 2014 (Local Time) from KDUJ Reporting Station
Overcast Overcast  
Wind Chill: 41°   Ceiling: 9500
Heat Index: 41°   Visibility: 10mi
Dew Point: 34°   Wind: 3mph
Humidity: 76%   Direction: 200°SSW
Pressure: 29.99"   Gusts: NA
Location:  41.03°N, 79.25°W
Report Text: KDUJ 201053Z AUTO 20003KT 10SM OVC095 05/01 A2999 RMK AO2 SLP163 T00500011
Loading
Personal Weather Stations






























Interactive Weather Map
Tropical Storm Tracking
New forecast layout! Learn more

10-Day Weather Forecast

Advertisements
Track Severe Weather on mobile